createdAt,value
2018-04-15T00:00:30.481Z,49.60
2018-04-15T00:01:35.997Z,49.60
2018-04-15T00:02:41.507Z,48.90
2018-04-15T00:03:47.017Z,49.20
2018-04-15T00:04:52.534Z,50.40
2018-04-15T00:05:58.048Z,50.10
2018-04-15T00:07:03.566Z,49.40
2018-04-15T00:08:09.079Z,49.80
2018-04-15T00:09:14.600Z,50.80
2018-04-15T00:10:20.102Z,50.60
2018-04-15T00:11:25.618Z,50.90
2018-04-15T00:12:31.144Z,50.40
2018-04-15T00:13:36.646Z,50.30
2018-04-15T00:14:42.163Z,51.90
2018-04-15T00:15:47.675Z,50.10
2018-04-15T00:16:53.189Z,49.50
2018-04-15T00:17:58.706Z,51.40
2018-04-15T00:19:04.217Z,52.20
2018-04-15T00:20:09.731Z,50.40
2018-04-15T00:21:15.243Z,50.20
2018-04-15T00:22:20.772Z,51.60
2018-04-15T00:23:26.295Z,53.20
2018-04-15T00:24:31.794Z,51.90
2018-04-15T00:25:37.312Z,54.00
2018-04-15T00:26:42.818Z,54.60
2018-04-15T00:27:48.449Z,52.90
2018-04-15T00:28:53.853Z,51.60
2018-04-15T00:29:59.362Z,53.50
2018-04-15T00:31:04.893Z,54.40
2018-04-15T00:32:10.387Z,54.20
2018-04-15T00:33:15.911Z,56.30
2018-04-15T00:34:21.416Z,56.10
2018-04-15T00:35:26.929Z,54.90
2018-04-15T00:36:32.450Z,56.80
2018-04-15T00:37:37.963Z,55.50
2018-04-15T00:38:43.470Z,55.20
2018-04-15T00:39:48.986Z,56.10
2018-04-15T00:40:54.515Z,56.30
2018-04-15T00:42:00.022Z,56.00
2018-04-15T00:43:05.530Z,58.30
2018-04-15T00:44:11.038Z,57.60
2018-04-15T00:45:16.554Z,57.20
2018-04-15T00:46:22.070Z,57.10
2018-04-15T00:47:27.588Z,58.50
2018-04-15T00:48:33.097Z,58.60
2018-04-15T00:49:38.620Z,57.50
2018-04-15T00:50:44.123Z,56.80
2018-04-15T00:51:49.649Z,56.40
2018-04-15T00:52:55.158Z,58.30
2018-04-15T00:54:00.668Z,58.20
2018-04-15T00:55:06.182Z,58.00
2018-04-15T00:56:11.697Z,58.20
2018-04-15T00:57:17.207Z,59.90
2018-04-15T00:58:22.724Z,57.40
2018-04-15T00:59:28.235Z,58.40
2018-04-15T01:00:33.763Z,59.30
2018-04-15T01:01:39.266Z,59.00
2018-04-15T01:02:44.778Z,58.10
2018-04-15T01:03:50.327Z,58.30
2018-04-15T01:04:55.808Z,58.50
2018-04-15T01:06:01.322Z,58.30
2018-04-15T01:07:06.837Z,59.80
2018-04-15T01:08:12.365Z,59.10
2018-04-15T01:09:17.865Z,60.70
2018-04-15T01:10:23.378Z,60.30
2018-04-15T01:11:28.891Z,60.20
2018-04-15T01:12:34.408Z,59.60
2018-04-15T01:13:39.919Z,59.80
2018-04-15T01:14:45.431Z,60.20
2018-04-15T01:15:50.949Z,59.70
2018-04-15T01:16:56.463Z,59.20
2018-04-15T01:18:01.981Z,60.20
2018-04-15T01:19:07.493Z,59.70
2018-04-15T01:20:13.005Z,59.20
2018-04-15T01:21:18.522Z,60.20
2018-04-15T01:22:24.038Z,60.00
2018-04-15T01:23:29.555Z,61.90
2018-04-15T01:24:35.059Z,59.20
2018-04-15T01:25:40.575Z,60.00
2018-04-15T01:26:46.087Z,59.10
2018-04-15T01:27:51.602Z,61.70
2018-04-15T01:28:57.117Z,59.20
2018-04-15T01:30:02.640Z,60.20
2018-04-15T01:31:08.145Z,59.70
2018-04-15T01:32:13.657Z,60.10
2018-04-15T01:33:19.192Z,61.60
2018-04-15T01:34:24.689Z,60.50
2018-04-15T01:35:30.199Z,61.90
2018-04-15T01:36:35.712Z,62.40
2018-04-15T01:37:41.232Z,60.70
2018-04-15T01:38:46.804Z,62.40
2018-04-15T01:39:52.265Z,63.70
2018-04-15T01:40:57.769Z,62.30
2018-04-15T01:42:03.284Z,60.90
2018-04-15T01:43:08.805Z,61.10
2018-04-15T01:44:14.310Z,60.70
2018-04-15T01:45:19.827Z,61.30
2018-04-15T01:46:25.338Z,62.30
2018-04-15T01:47:30.854Z,60.80
2018-04-15T01:48:36.369Z,61.30
2018-04-15T01:49:41.883Z,60.70
2018-04-15T01:50:47.397Z,61.20
2018-04-15T01:51:52.907Z,61.70
2018-04-15T01:52:58.423Z,60.80
2018-04-15T01:54:03.939Z,60.30
2018-04-15T01:55:09.451Z,60.70
2018-04-15T01:56:14.965Z,59.50
2018-04-15T01:57:20.483Z,60.50
2018-04-15T01:58:25.990Z,59.50
2018-04-15T01:59:31.503Z,59.10
2018-04-15T02:00:37.023Z,60.40
2018-04-15T02:01:42.543Z,60.30
2018-04-15T02:02:48.053Z,60.40
2018-04-15T02:03:53.560Z,61.00
2018-04-15T02:04:59.077Z,58.90
2018-04-15T02:06:04.591Z,58.50
2018-04-15T02:07:10.107Z,59.50
2018-04-15T02:08:15.618Z,59.10
2018-04-15T02:09:21.131Z,58.00
2018-04-15T02:10:26.649Z,59.90
2018-04-15T02:11:32.176Z,61.00
2018-04-15T02:12:37.677Z,60.80
2018-04-15T02:13:43.199Z,60.80
2018-04-15T02:14:48.705Z,60.20
2018-04-15T02:15:54.219Z,61.20
2018-04-15T02:16:59.728Z,62.60
2018-04-15T02:18:05.245Z,61.60
2018-04-15T02:19:10.761Z,61.10
2018-04-15T02:20:16.274Z,62.50
2018-04-15T02:21:21.784Z,61.10
2018-04-15T02:22:27.301Z,62.80
2018-04-15T02:23:32.841Z,60.80
2018-04-15T02:24:38.327Z,61.80
2018-04-15T02:25:43.842Z,62.50
2018-04-15T02:26:49.366Z,60.80
2018-04-15T02:27:54.869Z,62.70
2018-04-15T02:29:00.389Z,62.80
2018-04-15T02:30:05.896Z,63.10
2018-04-15T02:31:11.411Z,62.20
2018-04-15T02:32:16.928Z,63.70
2018-04-15T02:33:22.441Z,62.60
2018-04-15T02:34:27.958Z,60.10
2018-04-15T02:35:33.468Z,63.10
2018-04-15T02:36:38.981Z,63.50
2018-04-15T02:37:44.494Z,64.20
2018-04-15T02:38:50.015Z,62.10
2018-04-15T02:39:55.531Z,62.70
2018-04-15T02:41:01.039Z,62.00
2018-04-15T02:42:06.562Z,61.10
2018-04-15T02:43:12.068Z,62.40
2018-04-15T02:44:17.589Z,61.70
2018-04-15T02:45:23.097Z,61.40
2018-04-15T02:46:28.614Z,65.30
2018-04-15T02:47:34.214Z,62.10
2018-04-15T02:48:39.637Z,62.90
2018-04-15T02:49:45.168Z,62.40
2018-04-15T02:50:50.664Z,63.50
2018-04-15T02:51:56.180Z,63.80
2018-04-15T02:53:01.700Z,64.30
2018-04-15T02:54:07.215Z,65.00
2018-04-15T02:55:12.719Z,64.30
2018-04-15T02:56:18.240Z,65.00
2018-04-15T02:57:23.751Z,64.10
2018-04-15T02:58:29.260Z,65.60
2018-04-15T02:59:34.781Z,65.80
2018-04-15T03:00:40.335Z,65.80
2018-04-15T03:01:45.808Z,65.10
2018-04-15T03:02:51.338Z,66.20
2018-04-15T03:03:56.837Z,65.30
2018-04-15T03:05:02.354Z,66.50
2018-04-15T03:06:07.861Z,67.30
2018-04-15T03:07:13.387Z,68.30
2018-04-15T03:08:18.895Z,68.40
2018-04-15T03:09:24.405Z,67.70
2018-04-15T03:10:29.920Z,69.30
2018-04-15T03:11:35.428Z,68.30
2018-04-15T03:12:40.946Z,69.00
2018-04-15T03:13:46.460Z,65.30
2018-04-15T03:14:51.968Z,67.90
2018-04-15T03:15:57.486Z,69.70
2018-04-15T03:17:02.997Z,67.70
2018-04-15T03:18:08.509Z,67.70
2018-04-15T03:19:14.025Z,67.00
2018-04-15T03:20:19.539Z,71.80
2018-04-15T03:21:25.058Z,69.60
2018-04-15T03:22:30.567Z,67.60
2018-04-15T03:23:36.080Z,68.60
2018-04-15T03:24:41.591Z,65.20
2018-04-15T03:25:47.108Z,67.50
2018-04-15T03:26:52.629Z,68.10
2018-04-15T03:27:58.137Z,67.90
2018-04-15T03:29:03.654Z,68.40
2018-04-15T03:30:09.179Z,68.30
2018-04-15T03:31:14.675Z,69.20
2018-04-15T03:32:20.190Z,66.70
2018-04-15T03:33:25.712Z,65.00
2018-04-15T03:34:31.218Z,66.50
2018-04-15T03:35:36.741Z,63.40
2018-04-15T03:36:42.249Z,64.30
2018-04-15T03:37:47.762Z,63.20
2018-04-15T03:38:53.277Z,61.00
2018-04-15T03:39:58.787Z,62.20
2018-04-15T03:41:04.301Z,62.10
2018-04-15T03:42:09.813Z,60.90
2018-04-15T03:43:15.339Z,60.00
2018-04-15T03:44:20.849Z,59.80
2018-04-15T03:45:26.357Z,58.50
2018-04-15T03:46:31.871Z,58.80
2018-04-15T03:47:37.388Z,58.20
2018-04-15T03:48:42.898Z,55.10
2018-04-15T03:49:48.415Z,54.70
2018-04-15T03:50:53.928Z,51.80
2018-04-15T03:51:59.438Z,50.50
2018-04-15T03:53:04.951Z,49.70
2018-04-15T03:54:10.477Z,51.30
2018-04-15T03:55:15.983Z,53.50
2018-04-15T03:56:21.494Z,50.60
2018-04-15T03:57:27.010Z,50.50
2018-04-15T03:58:32.528Z,50.80
2018-04-15T03:59:38.041Z,49.80
2018-04-15T04:00:43.553Z,48.00
2018-04-15T04:01:49.069Z,47.50
2018-04-15T04:02:54.690Z,48.00
2018-04-15T04:04:00.101Z,47.50
2018-04-15T04:05:05.609Z,47.50
2018-04-15T04:06:11.123Z,46.40
2018-04-15T04:07:16.636Z,45.50
2018-04-15T04:08:22.148Z,47.00
2018-04-15T04:09:27.671Z,45.30
2018-04-15T04:10:33.181Z,45.60
2018-04-15T04:11:38.690Z,47.00
2018-04-15T04:12:44.204Z,46.70
2018-04-15T04:13:49.716Z,45.60
2018-04-15T04:14:55.236Z,42.30
2018-04-15T04:16:00.744Z,44.70
2018-04-15T04:17:06.259Z,44.50
2018-04-15T04:18:11.770Z,45.30
2018-04-15T04:19:17.293Z,46.20
2018-04-15T04:20:22.855Z,45.40
2018-04-15T04:21:28.319Z,46.10
2018-04-15T04:22:33.829Z,46.10
2018-04-15T04:23:39.342Z,47.00
2018-04-15T04:24:44.861Z,46.80
2018-04-15T04:25:50.368Z,45.70
2018-04-15T04:26:55.885Z,46.00
2018-04-15T04:28:01.403Z,45.50
2018-04-15T04:29:06.910Z,44.30
2018-04-15T04:30:12.424Z,45.20
2018-04-15T04:31:17.949Z,44.70
2018-04-15T04:32:23.457Z,45.10
2018-04-15T04:33:28.971Z,43.00
2018-04-15T04:34:34.478Z,45.10
2018-04-15T04:35:40.000Z,44.60
2018-04-15T04:36:45.509Z,44.80
2018-04-15T04:37:51.089Z,45.50
2018-04-15T04:38:56.541Z,45.10
2018-04-15T04:40:02.057Z,45.00
2018-04-15T04:41:07.565Z,44.20
2018-04-15T04:42:13.079Z,44.40
2018-04-15T04:43:18.597Z,45.60
2018-04-15T04:44:24.114Z,44.50
2018-04-15T04:45:29.615Z,44.50
2018-04-15T04:46:35.137Z,44.60
2018-04-15T04:47:40.647Z,43.00
2018-04-15T04:48:46.161Z,43.20
2018-04-15T04:49:51.672Z,43.80
2018-04-15T04:50:57.190Z,42.50
2018-04-15T04:52:02.704Z,41.60
2018-04-15T04:53:08.215Z,39.50
2018-04-15T04:54:13.731Z,41.20
2018-04-15T04:55:19.241Z,38.70
2018-04-15T04:56:24.762Z,39.30
2018-04-15T04:57:30.271Z,34.70
2018-04-15T04:58:35.781Z,35.20
2018-04-15T04:59:41.297Z,36.60
2018-04-15T05:00:46.810Z,37.20
2018-04-15T05:01:52.330Z,36.90
2018-04-15T05:02:57.839Z,38.40
2018-04-15T05:04:03.361Z,37.20
2018-04-15T05:05:08.871Z,38.80
2018-04-15T05:06:14.385Z,39.20
2018-04-15T05:07:19.899Z,36.50
2018-04-15T05:08:25.431Z,35.30
2018-04-15T05:09:30.919Z,35.90
2018-04-15T05:10:36.436Z,35.20
2018-04-15T05:11:41.948Z,36.30
2018-04-15T05:12:47.468Z,36.00
2018-04-15T05:13:52.973Z,34.30
2018-04-15T05:14:58.495Z,34.10
2018-04-15T05:16:04.007Z,34.00
2018-04-15T05:17:09.571Z,33.90
2018-04-15T05:18:15.030Z,34.70
2018-04-15T05:19:20.543Z,32.50
2018-04-15T05:20:26.058Z,31.70
2018-04-15T05:21:31.572Z,30.80
2018-04-15T05:22:37.085Z,30.90
2018-04-15T05:23:42.598Z,32.30
2018-04-15T05:24:48.117Z,32.60
2018-04-15T05:25:53.629Z,32.00
2018-04-15T05:26:59.139Z,32.50
2018-04-15T05:28:04.661Z,31.40
2018-04-15T05:29:10.169Z,32.10
2018-04-15T05:30:15.688Z,32.70
2018-04-15T05:31:21.199Z,33.50
2018-04-15T05:32:26.708Z,31.70
2018-04-15T05:33:32.232Z,31.50
2018-04-15T05:34:37.740Z,30.50
2018-04-15T05:35:43.252Z,28.00
2018-04-15T05:36:48.773Z,29.90
2018-04-15T05:37:54.279Z,29.90
2018-04-15T05:38:59.797Z,27.20
2018-04-15T05:40:05.310Z,25.10
2018-04-15T05:41:10.820Z,21.70
2018-04-15T05:42:16.333Z,22.60
2018-04-15T05:43:21.851Z,22.70
2018-04-15T05:44:27.357Z,20.30
2018-04-15T05:45:32.927Z,20.40
2018-04-15T05:46:38.389Z,19.10
2018-04-15T05:47:43.903Z,21.70
2018-04-15T05:48:49.455Z,19.90
2018-04-15T05:49:54.929Z,18.10
2018-04-15T05:51:00.449Z,18.00
2018-04-15T05:52:05.960Z,17.30
2018-04-15T05:53:11.473Z,16.80
2018-04-15T05:54:16.985Z,15.70
2018-04-15T05:55:22.505Z,15.20
2018-04-15T05:56:28.017Z,15.70
2018-04-15T05:57:33.529Z,13.40
2018-04-15T05:58:39.039Z,13.60
2018-04-15T05:59:44.565Z,13.80
2018-04-15T06:00:50.068Z,14.20
2018-04-15T06:01:55.583Z,14.20
2018-04-15T06:03:01.102Z,14.80
2018-04-15T06:04:06.608Z,15.90
2018-04-15T06:05:12.142Z,16.60
2018-04-15T06:06:17.636Z,16.30
2018-04-15T06:07:23.156Z,17.50
2018-04-15T06:08:28.668Z,17.60
2018-04-15T06:09:34.181Z,20.30
2018-04-15T06:10:39.694Z,19.90
2018-04-15T06:11:45.206Z,20.10
2018-04-15T06:12:50.720Z,19.40
2018-04-15T06:13:56.270Z,20.10
2018-04-15T06:15:01.751Z,20.10
2018-04-15T06:16:07.267Z,19.70
2018-04-15T06:17:12.774Z,21.20
2018-04-15T06:18:18.292Z,19.40
2018-04-15T06:19:23.808Z,17.40
2018-04-15T06:20:29.319Z,17.70
2018-04-15T06:21:34.834Z,18.60
2018-04-15T06:22:40.347Z,17.30
2018-04-15T06:23:45.862Z,16.90
2018-04-15T06:24:51.385Z,16.60
2018-04-15T06:25:56.893Z,16.60
2018-04-15T06:27:02.411Z,15.90
2018-04-15T06:28:07.915Z,17.10
2018-04-15T06:29:13.433Z,15.60
2018-04-15T06:30:18.947Z,14.90
2018-04-15T06:31:24.460Z,15.00
2018-04-15T06:32:30.028Z,15.50
2018-04-15T06:33:35.482Z,16.40
2018-04-15T06:34:40.999Z,15.50
2018-04-15T06:35:46.512Z,15.50
2018-04-15T06:36:52.082Z,15.60
2018-04-15T06:37:57.541Z,15.50
2018-04-15T06:39:03.053Z,16.10
2018-04-15T06:40:08.569Z,15.60
2018-04-15T06:41:14.107Z,16.40
2018-04-15T06:42:19.598Z,15.50
2018-04-15T06:43:25.110Z,15.90
2018-04-15T06:44:30.623Z,15.40
2018-04-15T06:45:36.139Z,15.50
2018-04-15T06:46:41.654Z,16.60
2018-04-15T06:47:47.174Z,16.40
2018-04-15T06:48:52.687Z,16.30
2018-04-15T06:49:58.192Z,17.80
2018-04-15T06:51:03.709Z,17.40
2018-04-15T06:52:09.232Z,17.00
2018-04-15T06:53:14.736Z,17.00
2018-04-15T06:54:20.248Z,17.60
2018-04-15T06:55:25.765Z,17.50
2018-04-15T06:56:31.278Z,17.20
2018-04-15T06:57:36.808Z,18.10
2018-04-15T06:58:42.305Z,16.70
2018-04-15T06:59:47.820Z,17.40
2018-04-15T07:00:53.335Z,15.50
2018-04-15T07:01:58.847Z,17.10
2018-04-15T07:03:04.361Z,15.80
2018-04-15T07:04:09.877Z,16.90
2018-04-15T07:05:15.388Z,16.40
2018-04-15T07:06:20.909Z,16.40
2018-04-15T07:07:26.420Z,16.00
2018-04-15T07:08:31.938Z,15.80
2018-04-15T07:09:37.469Z,16.00
2018-04-15T07:10:42.968Z,16.60
2018-04-15T07:11:48.493Z,15.00
2018-04-15T07:12:53.988Z,15.50
2018-04-15T07:13:59.518Z,14.40
2018-04-15T07:15:05.026Z,14.40
2018-04-15T07:16:10.532Z,14.50
2018-04-15T07:17:16.102Z,14.80
2018-04-15T07:18:21.566Z,14.00
2018-04-15T07:19:27.076Z,14.10
2018-04-15T07:20:32.595Z,13.20
2018-04-15T07:21:38.130Z,14.90
2018-04-15T07:22:43.625Z,14.60
2018-04-15T07:23:49.137Z,15.50
2018-04-15T07:24:54.667Z,14.10
2018-04-15T07:26:00.169Z,14.80
2018-04-15T07:27:05.679Z,14.80
2018-04-15T07:28:11.203Z,12.70
2018-04-15T07:29:16.707Z,12.60
2018-04-15T07:30:22.237Z,13.20
2018-04-15T07:31:27.738Z,12.30
2018-04-15T07:32:33.259Z,12.60
2018-04-15T07:33:38.773Z,13.20
2018-04-15T07:34:44.287Z,13.90
2018-04-15T07:35:49.799Z,14.00
2018-04-15T07:36:55.320Z,12.50
2018-04-15T07:38:00.826Z,12.80
2018-04-15T07:39:06.339Z,13.30
2018-04-15T07:40:11.866Z,13.30
2018-04-15T07:41:17.373Z,14.20
2018-04-15T07:42:22.886Z,13.30
2018-04-15T07:43:28.399Z,13.50
2018-04-15T07:44:33.919Z,12.80
2018-04-15T07:45:39.435Z,13.80
2018-04-15T07:46:44.944Z,13.60
2018-04-15T07:47:50.455Z,13.00
2018-04-15T07:48:55.975Z,14.20
2018-04-15T07:50:01.489Z,12.30
2018-04-15T07:51:07.000Z,12.80
2018-04-15T07:52:12.518Z,12.10
2018-04-15T07:53:18.032Z,11.00
2018-04-15T07:54:23.554Z,9.60
2018-04-15T07:55:29.060Z,9.30
2018-04-15T07:56:34.587Z,10.20
2018-04-15T07:57:40.091Z,7.70
2018-04-15T07:58:45.607Z,8.10
2018-04-15T07:59:51.122Z,7.40
2018-04-15T08:00:56.646Z,8.30
2018-04-15T08:02:02.153Z,8.30
2018-04-15T08:03:07.664Z,8.80
2018-04-15T08:04:13.189Z,7.90
2018-04-15T08:05:18.700Z,8.30
2018-04-15T08:06:24.208Z,7.20
2018-04-15T08:07:29.725Z,7.60
2018-04-15T08:08:35.240Z,8.30
2018-04-15T08:09:40.756Z,7.60
2018-04-15T08:10:46.273Z,6.70
2018-04-15T08:11:51.785Z,6.70
2018-04-15T08:12:57.302Z,6.90
2018-04-15T08:14:02.815Z,5.90
2018-04-15T08:15:08.336Z,5.30
2018-04-15T08:16:13.849Z,5.20
2018-04-15T08:17:19.362Z,5.90
2018-04-15T08:18:24.888Z,6.20
2018-04-15T08:19:30.393Z,5.00
2018-04-15T08:20:35.915Z,4.20
2018-04-15T08:21:41.423Z,4.00
2018-04-15T08:22:46.941Z,4.30
2018-04-15T08:23:52.463Z,3.20
2018-04-15T08:24:57.969Z,3.50
2018-04-15T08:26:03.495Z,3.70
2018-04-15T08:27:09.003Z,4.20
2018-04-15T08:28:14.516Z,4.80
2018-04-15T08:29:20.029Z,4.60
2018-04-15T08:30:25.553Z,4.50
2018-04-15T08:31:31.075Z,4.00
2018-04-15T08:32:36.595Z,3.60
2018-04-15T08:33:42.091Z,3.80
2018-04-15T08:34:47.619Z,5.80
2018-04-15T08:35:53.125Z,4.90
2018-04-15T08:36:58.641Z,4.40
2018-04-15T08:38:04.193Z,4.10
2018-04-15T08:39:09.668Z,4.20
2018-04-15T08:40:15.181Z,4.40
2018-04-15T08:41:20.701Z,5.20
2018-04-15T08:42:26.232Z,4.20
2018-04-15T08:43:31.728Z,3.20
2018-04-15T08:44:37.247Z,3.20
2018-04-15T08:45:42.776Z,2.50
2018-04-15T08:46:48.289Z,1.70
2018-04-15T08:47:53.792Z,1.90
2018-04-15T08:48:59.309Z,2.20
2018-04-15T08:50:04.825Z,1.70
2018-04-15T08:51:10.342Z,2.00
2018-04-15T08:52:15.853Z,1.90
2018-04-15T08:53:21.369Z,2.10
2018-04-15T08:54:26.895Z,2.50
2018-04-15T08:55:32.403Z,2.40
2018-04-15T08:56:37.916Z,2.70
2018-04-15T08:57:43.463Z,2.10
2018-04-15T08:58:48.947Z,2.20
2018-04-15T08:59:54.468Z,2.00
2018-04-15T09:00:59.978Z,1.90
2018-04-15T09:02:05.499Z,1.80
2018-04-15T09:03:11.014Z,1.90
2018-04-15T09:04:16.528Z,1.90
2018-04-15T09:05:22.044Z,2.40
2018-04-15T09:06:27.561Z,2.30
2018-04-15T09:07:33.075Z,1.90
2018-04-15T09:08:38.588Z,1.90
2018-04-15T09:09:44.149Z,2.00
2018-04-15T09:10:49.619Z,1.90
2018-04-15T09:11:55.138Z,2.10
2018-04-15T09:13:00.651Z,1.90
2018-04-15T09:14:06.166Z,1.90
2018-04-15T09:15:11.687Z,2.00
2018-04-15T09:16:17.203Z,1.90
2018-04-15T09:17:22.713Z,1.80
2018-04-15T09:18:28.233Z,1.80
2018-04-15T09:19:33.756Z,1.90
2018-04-15T09:20:39.259Z,1.90
2018-04-15T09:21:44.784Z,1.70
2018-04-15T09:22:50.305Z,1.70
2018-04-15T09:23:55.811Z,1.50
2018-04-15T09:25:01.325Z,1.70
2018-04-15T09:26:06.841Z,1.70
2018-04-15T09:27:12.354Z,1.80
2018-04-15T09:28:17.876Z,1.80
2018-04-15T09:29:23.394Z,1.50
2018-04-15T09:30:28.912Z,1.70
2018-04-15T09:31:34.433Z,1.50
2018-04-15T09:32:39.933Z,1.50
2018-04-15T09:33:45.451Z,1.50
2018-04-15T09:34:50.969Z,1.30
2018-04-15T09:35:56.487Z,1.60
2018-04-15T09:37:01.999Z,1.30
2018-04-15T09:38:07.572Z,1.20
2018-04-15T09:39:13.029Z,1.10
2018-04-15T09:40:18.556Z,1.50
2018-04-15T09:41:24.070Z,1.40
2018-04-15T09:42:29.583Z,1.30
2018-04-15T09:43:35.103Z,1.30
2018-04-15T09:44:40.613Z,1.50
2018-04-15T09:45:46.132Z,1.40
2018-04-15T09:46:51.638Z,1.20
2018-04-15T09:47:57.156Z,0.90
2018-04-15T09:49:02.678Z,1.00
2018-04-15T09:50:08.199Z,1.00
2018-04-15T09:51:13.705Z,1.00
2018-04-15T09:52:19.228Z,1.00
2018-04-15T09:53:24.737Z,1.30
2018-04-15T09:54:30.259Z,0.90
2018-04-15T09:55:35.783Z,1.10
2018-04-15T09:56:41.285Z,1.30
2018-04-15T09:57:46.801Z,1.20
2018-04-15T09:58:52.333Z,1.30
2018-04-15T09:59:57.837Z,1.20
2018-04-15T10:01:03.354Z,1.10
2018-04-15T10:02:08.866Z,1.10
2018-04-15T10:03:14.385Z,0.90
2018-04-15T10:04:19.905Z,1.10
2018-04-15T10:05:25.414Z,0.90
2018-04-15T10:06:30.938Z,1.00
2018-04-15T10:07:36.454Z,0.80
2018-04-15T10:08:41.966Z,1.20
2018-04-15T10:09:47.485Z,0.70
2018-04-15T10:10:53.030Z,0.80
2018-04-15T10:11:58.515Z,0.90
2018-04-15T10:13:04.044Z,0.90
2018-04-15T10:14:09.555Z,1.00
2018-04-15T10:15:15.070Z,1.10
2018-04-15T10:16:20.590Z,1.00
2018-04-15T10:17:26.106Z,0.90
2018-04-15T10:18:31.620Z,0.60
2018-04-15T10:19:37.136Z,0.60
2018-04-15T10:20:42.663Z,1.10
2018-04-15T10:21:48.167Z,0.80
2018-04-15T10:22:53.686Z,0.60
2018-04-15T10:23:59.269Z,0.90
2018-04-15T10:25:04.720Z,0.90
2018-04-15T10:26:10.246Z,0.90
2018-04-15T10:27:15.753Z,0.90
2018-04-15T10:28:21.277Z,0.80
2018-04-15T10:29:26.803Z,1.00
2018-04-15T10:30:32.310Z,1.00
2018-04-15T10:31:37.823Z,0.80
2018-04-15T10:32:43.373Z,0.90
2018-04-15T10:33:48.859Z,1.00
2018-04-15T10:34:54.371Z,0.80
2018-04-15T10:35:59.892Z,1.00
2018-04-15T10:37:05.407Z,0.90
2018-04-15T10:38:10.936Z,0.90
2018-04-15T10:39:16.442Z,1.00
2018-04-15T10:40:21.982Z,0.80
2018-04-15T10:41:27.480Z,0.90
2018-04-15T10:42:32.991Z,0.90
2018-04-15T10:43:38.546Z,1.00
2018-04-15T10:44:44.038Z,0.90
2018-04-15T10:45:49.558Z,0.90
2018-04-15T10:46:55.058Z,1.10
2018-04-15T10:48:00.576Z,0.90
2018-04-15T10:49:06.095Z,0.80
2018-04-15T10:50:11.615Z,1.40
2018-04-15T10:51:17.129Z,1.00
2018-04-15T10:52:22.649Z,1.10
2018-04-15T10:53:28.172Z,1.10
2018-04-15T10:54:33.727Z,0.90
2018-04-15T10:55:39.194Z,0.90
2018-04-15T10:56:44.716Z,1.00
2018-04-15T10:57:50.240Z,1.00
2018-04-15T10:58:55.750Z,1.40
2018-04-15T11:00:01.268Z,1.10
2018-04-15T11:01:06.803Z,1.10
2018-04-15T11:02:12.316Z,1.00
2018-04-15T11:03:17.825Z,1.10
2018-04-15T11:04:23.368Z,1.10
2018-04-15T11:05:28.861Z,1.30
2018-04-15T11:06:34.388Z,1.00
2018-04-15T11:07:39.896Z,0.70
2018-04-15T11:08:45.467Z,0.80
2018-04-15T11:09:50.928Z,0.80
2018-04-15T11:10:56.454Z,0.90
2018-04-15T11:12:01.970Z,0.80
2018-04-15T11:13:07.490Z,0.90
2018-04-15T11:14:13.059Z,0.80
2018-04-15T11:15:18.523Z,0.70
2018-04-15T11:16:24.046Z,0.70
2018-04-15T11:17:29.558Z,0.70
2018-04-15T11:18:35.074Z,0.80
2018-04-15T11:19:40.589Z,0.80
2018-04-15T11:20:46.106Z,0.90
2018-04-15T11:21:51.628Z,1.00
2018-04-15T11:22:57.151Z,0.90
2018-04-15T11:24:02.675Z,1.00
2018-04-15T11:25:08.182Z,0.80
2018-04-15T11:26:13.698Z,1.00
2018-04-15T11:27:19.222Z,0.90
2018-04-15T11:28:24.741Z,1.00
2018-04-15T11:29:30.255Z,0.90
2018-04-15T11:30:35.775Z,1.00
2018-04-15T11:31:41.295Z,1.00
2018-04-15T11:32:46.808Z,1.00
2018-04-15T11:33:52.332Z,0.80
2018-04-15T11:34:57.850Z,0.80
2018-04-15T11:36:03.374Z,1.10
2018-04-15T11:37:08.886Z,0.90
2018-04-15T11:38:14.399Z,1.10
2018-04-15T11:39:19.925Z,1.10
2018-04-15T11:40:25.560Z,1.10
2018-04-15T11:41:30.978Z,1.00
2018-04-15T11:42:36.478Z,0.80
2018-04-15T11:43:41.999Z,1.10
2018-04-15T11:44:47.516Z,1.00
2018-04-15T11:45:53.036Z,1.00
2018-04-15T11:46:58.600Z,1.00
2018-04-15T11:48:04.305Z,1.00
2018-04-15T11:49:09.597Z,0.90
2018-04-15T11:50:15.106Z,1.00
2018-04-15T11:51:20.627Z,1.10
2018-04-15T11:52:26.147Z,0.90
2018-04-15T11:53:31.658Z,1.10
2018-04-15T11:54:37.177Z,1.30
2018-04-15T11:55:42.698Z,1.10
2018-04-15T11:56:48.217Z,1.00
2018-04-15T11:57:53.739Z,1.10
2018-04-15T11:58:59.253Z,1.20
2018-04-15T12:00:04.776Z,1.20
2018-04-15T12:01:10.349Z,1.20
2018-04-15T12:02:15.827Z,1.30
2018-04-15T12:03:21.339Z,1.00
2018-04-15T12:04:26.849Z,1.20
2018-04-15T12:05:32.368Z,1.20
2018-04-15T12:06:37.896Z,1.20
2018-04-15T12:07:43.410Z,1.10
2018-04-15T12:08:48.925Z,1.10
2018-04-15T12:09:54.448Z,1.10
2018-04-15T12:10:59.969Z,1.20
2018-04-15T12:12:05.480Z,1.40
2018-04-15T12:13:11.007Z,1.10
2018-04-15T12:14:16.519Z,1.20
2018-04-15T12:15:22.042Z,1.00
2018-04-15T12:16:27.562Z,1.20
2018-04-15T12:17:33.082Z,1.50
2018-04-15T12:18:38.601Z,1.10
2018-04-15T12:19:44.125Z,1.30
2018-04-15T12:20:49.636Z,1.20
2018-04-15T12:21:55.157Z,1.30
2018-04-15T12:23:00.677Z,1.50
2018-04-15T12:24:06.197Z,1.20
2018-04-15T12:25:11.724Z,1.30
2018-04-15T12:26:17.239Z,1.10
2018-04-15T12:27:22.758Z,1.30
2018-04-15T12:28:28.273Z,1.30
2018-04-15T12:29:33.787Z,1.20
2018-04-15T12:30:39.311Z,1.20
2018-04-15T12:31:44.851Z,1.30
2018-04-15T12:32:50.351Z,1.30
2018-04-15T12:33:55.937Z,1.40
2018-04-15T12:35:01.391Z,1.50
2018-04-15T12:36:06.905Z,1.40
2018-04-15T12:37:12.429Z,1.40
2018-04-15T12:38:17.953Z,1.40
2018-04-15T12:39:23.466Z,1.50
2018-04-15T12:40:28.991Z,1.60
2018-04-15T12:41:34.513Z,1.40
2018-04-15T12:42:40.046Z,1.30
2018-04-15T12:43:45.548Z,1.20
2018-04-15T12:44:51.067Z,1.70
2018-04-15T12:45:56.596Z,1.10
2018-04-15T12:47:02.113Z,1.10
2018-04-15T12:48:07.620Z,1.10
2018-04-15T12:49:13.145Z,1.20
2018-04-15T12:50:18.678Z,7.30
2018-04-15T12:51:24.188Z,1.20
2018-04-15T12:52:29.701Z,1.40
2018-04-15T12:53:35.229Z,1.40
2018-04-15T12:54:40.739Z,16.40
2018-04-15T12:55:46.261Z,16.30
2018-04-15T12:56:51.781Z,4.10
2018-04-15T12:57:57.319Z,6.30
2018-04-15T12:59:02.818Z,1.60
2018-04-15T13:00:08.339Z,5.70
2018-04-15T13:01:13.921Z,6.60
2018-04-15T13:02:19.389Z,1.20
2018-04-15T13:03:24.899Z,2.70
2018-04-15T13:04:30.433Z,4.50
2018-04-15T13:05:35.939Z,2.50
2018-04-15T13:06:41.467Z,2.20
2018-04-15T13:07:46.979Z,6.80
2018-04-15T13:08:52.500Z,3.70
2018-04-15T13:09:58.028Z,4.90
2018-04-15T13:11:03.541Z,5.60
2018-04-15T13:12:09.060Z,1.90
2018-04-15T13:13:14.585Z,1.30
2018-04-15T13:14:20.114Z,1.40
2018-04-15T13:15:25.634Z,1.90
2018-04-15T13:16:31.150Z,1.50
2018-04-15T13:17:36.669Z,2.30
2018-04-15T13:18:42.197Z,1.70
2018-04-15T13:19:47.708Z,1.50
2018-04-15T13:20:53.222Z,1.80
2018-04-15T13:21:58.751Z,1.50
2018-04-15T13:23:04.269Z,1.80
2018-04-15T13:24:09.789Z,1.60
2018-04-15T13:25:15.302Z,1.50
2018-04-15T13:26:20.833Z,2.00
2018-04-15T13:27:26.366Z,1.50
2018-04-15T13:28:31.882Z,1.80
2018-04-15T13:29:37.379Z,1.70
2018-04-15T13:30:42.903Z,1.50
2018-04-15T13:31:48.541Z,1.90
2018-04-15T13:32:53.951Z,1.50
2018-04-15T13:33:59.467Z,1.40
2018-04-15T13:35:04.989Z,1.90
2018-04-15T13:36:10.513Z,1.50
2018-04-15T13:37:16.044Z,1.80
2018-04-15T13:38:21.546Z,1.90
2018-04-15T13:39:27.066Z,1.80
2018-04-15T13:40:32.578Z,1.60
2018-04-15T13:41:38.098Z,1.70
2018-04-15T13:42:43.633Z,1.60
2018-04-15T13:43:49.140Z,1.60
2018-04-15T13:44:54.668Z,1.60
2018-04-15T13:46:00.176Z,1.70
2018-04-15T13:47:05.698Z,1.80
2018-04-15T13:48:11.232Z,1.80
2018-04-15T13:49:16.734Z,1.70
2018-04-15T13:50:22.263Z,1.30
2018-04-15T13:51:27.786Z,1.30
2018-04-15T13:52:33.288Z,1.50
2018-04-15T13:53:38.806Z,1.60
2018-04-15T13:54:44.328Z,1.60
2018-04-15T13:55:49.889Z,1.80
2018-04-15T13:56:55.367Z,1.60
2018-04-15T13:58:00.888Z,1.60
2018-04-15T13:59:06.412Z,1.70
2018-04-15T14:00:11.920Z,1.60
2018-04-15T14:01:17.447Z,1.40
2018-04-15T14:02:22.958Z,1.60
2018-04-15T14:03:28.482Z,1.40
2018-04-15T14:04:33.997Z,1.70
2018-04-15T14:05:39.549Z,1.60
2018-04-15T14:06:45.038Z,1.70
2018-04-15T14:07:50.551Z,1.50
2018-04-15T14:08:56.083Z,1.40
2018-04-15T14:10:01.614Z,1.60
2018-04-15T14:11:07.114Z,1.60
2018-04-15T14:12:12.628Z,1.50
2018-04-15T14:13:18.154Z,1.60
2018-04-15T14:14:23.663Z,1.60
2018-04-15T14:15:29.188Z,1.50